createdAt,value
2018-04-12T00:02:12.101Z,100291.00
2018-04-12T00:07:13.437Z,100275.62
2018-04-12T00:12:14.755Z,100284.47
2018-04-12T00:17:16.811Z,100267.11
2018-04-12T00:22:18.138Z,100276.98
2018-04-12T00:27:19.441Z,100270.25
2018-04-12T00:32:21.480Z,100268.58
2018-04-12T00:37:22.797Z,100260.33
2018-04-12T00:42:24.109Z,100251.94
2018-04-12T00:47:25.442Z,100239.70
2018-04-12T00:52:26.797Z,100247.91
2018-04-12T00:57:28.870Z,100235.72
2018-04-12T01:02:30.180Z,100239.66
2018-04-12T01:07:31.509Z,100242.74
2018-04-12T01:12:32.826Z,100240.75
2018-04-12T01:17:34.141Z,100231.72
2018-04-12T01:22:35.458Z,100229.77
2018-04-12T01:27:37.482Z,100214.33
2018-04-12T01:32:38.837Z,100216.58
2018-04-12T01:37:40.146Z,100220.06
2018-04-12T01:42:42.207Z,100226.52
2018-04-12T01:47:43.522Z,100219.86
2018-04-12T01:52:44.829Z,100203.37
2018-04-12T01:57:46.883Z,100185.30
2018-04-12T02:02:48.190Z,100173.45
2018-04-12T02:07:49.498Z,100171.85
2018-04-12T02:12:50.823Z,100181.93
2018-04-12T02:17:52.126Z,100161.08
2018-04-12T02:22:53.426Z,100143.31
2018-04-12T02:27:54.761Z,100109.78
2018-04-12T02:32:56.077Z,100129.41
2018-04-12T02:37:57.427Z,100143.42
2018-04-12T02:42:58.719Z,100143.97
2018-04-12T02:48:00.034Z,100145.41
2018-04-12T02:53:02.130Z,100151.47
2018-04-12T02:58:04.210Z,100135.63
2018-04-12T03:03:05.544Z,100137.14
2018-04-12T03:08:06.875Z,100150.38
2018-04-12T03:13:08.295Z,100148.19
2018-04-12T03:18:10.392Z,100142.88
2018-04-12T03:23:11.733Z,100139.56
2018-04-12T03:28:13.052Z,100141.07
2018-04-12T03:33:14.369Z,100133.88
2018-04-12T03:38:15.659Z,100136.30
2018-04-12T03:43:16.972Z,100127.41
2018-04-12T03:48:18.290Z,100126.17
2018-04-12T03:53:19.610Z,100127.86
2018-04-12T03:58:20.923Z,100122.70
2018-04-12T04:03:22.983Z,100124.91
2018-04-12T04:08:24.319Z,100125.59
2018-04-12T04:13:26.354Z,100118.16
2018-04-12T04:18:46.122Z,100118.43
2018-04-12T04:23:47.438Z,100109.41
2018-04-12T04:28:49.501Z,100108.98
2018-04-12T04:33:50.819Z,100109.42
2018-04-12T04:38:52.149Z,100106.81
2018-04-12T04:43:53.483Z,100103.31
2018-04-12T04:48:54.818Z,100104.66
2018-04-12T04:53:56.133Z,100102.64
2018-04-12T04:58:57.464Z,100105.23
2018-04-12T05:03:58.762Z,100101.05
2018-04-12T05:09:00.098Z,100109.44
2018-04-12T05:14:01.438Z,100118.74
2018-04-12T05:19:02.780Z,100114.59
2018-04-12T05:24:04.131Z,100123.38
2018-04-12T05:29:06.228Z,100123.30
2018-04-12T05:34:07.593Z,100117.92
2018-04-12T05:39:09.018Z,100107.33
2018-04-12T05:44:11.070Z,100111.45
2018-04-12T05:49:12.405Z,100102.63
2018-04-12T05:54:13.714Z,100093.13
2018-04-12T05:59:15.774Z,100087.34
2018-04-12T06:04:17.111Z,100082.23
2018-04-12T06:09:19.186Z,100086.43
2018-04-12T06:14:20.485Z,100081.23
2018-04-12T06:19:21.803Z,100059.97
2018-04-12T06:24:23.098Z,100078.66
2018-04-12T06:29:24.431Z,100069.89
2018-04-12T06:34:25.749Z,100067.92
2018-04-12T06:39:27.782Z,100063.14
2018-04-12T06:44:29.083Z,100059.18
2018-04-12T06:49:30.430Z,100052.91
2018-04-12T06:54:32.486Z,100054.19
2018-04-12T06:59:33.881Z,100050.45
2018-04-12T07:04:35.886Z,100045.31
2018-04-12T07:09:37.214Z,100049.90
2018-04-12T07:14:38.535Z,100041.60
2018-04-12T07:19:39.859Z,100061.95
2018-04-12T07:24:41.167Z,100041.80
2018-04-12T07:29:42.470Z,100034.05
2018-04-12T07:34:43.816Z,100049.15
2018-04-12T07:39:45.130Z,100041.30
2018-04-12T07:44:46.444Z,100049.50
2018-04-12T07:49:47.779Z,100032.70
2018-04-12T07:54:49.089Z,100028.31
2018-04-12T07:59:50.419Z,100037.88
2018-04-12T08:04:52.474Z,100033.76
2018-04-12T08:09:53.794Z,100037.41
2018-04-12T08:14:55.125Z,100046.66
2018-04-12T08:19:56.441Z,100036.80
2018-04-12T08:24:57.734Z,100038.45
2018-04-12T08:29:59.039Z,100046.06
2018-04-12T08:35:00.340Z,100047.59
2018-04-12T08:40:01.674Z,100043.19
2018-04-12T08:45:03.030Z,100030.34
2018-04-12T08:50:04.370Z,100011.03
2018-04-12T08:55:05.703Z,100001.66
2018-04-12T09:00:06.998Z,99991.76
2018-04-12T09:05:08.316Z,99971.59
2018-04-12T09:10:09.654Z,99991.80
2018-04-12T09:15:10.970Z,99978.63
2018-04-12T09:20:13.024Z,99975.48
2018-04-12T09:25:14.334Z,99954.77
2018-04-12T09:30:15.638Z,99930.13
2018-04-12T09:35:16.948Z,99927.64
2018-04-12T09:40:18.986Z,99932.49
2018-04-12T09:45:20.302Z,99938.77
2018-04-12T09:50:21.623Z,99941.44
2018-04-12T09:55:22.935Z,99936.70
2018-04-12T10:00:26.253Z,99946.29
2018-04-12T10:05:29.250Z,99942.60
2018-04-12T10:10:30.541Z,99920.29
2018-04-12T10:15:31.858Z,99931.05
2018-04-12T10:20:33.184Z,99930.47
2018-04-12T10:25:34.579Z,99927.18
2018-04-12T10:30:36.594Z,99930.57
2018-04-12T10:35:37.922Z,99931.03
2018-04-12T10:40:39.250Z,99935.15
2018-04-12T10:45:40.587Z,99929.77
2018-04-12T10:50:41.919Z,99928.25
2018-04-12T10:55:43.998Z,99925.13
2018-04-12T11:00:45.302Z,99928.42
2018-04-12T11:05:47.339Z,99932.34
2018-04-12T11:10:48.663Z,99926.20
2018-04-12T11:15:49.978Z,99914.06
2018-04-12T11:20:51.270Z,99921.38
2018-04-12T11:25:52.602Z,99907.55
2018-04-12T11:30:53.914Z,99903.98
2018-04-12T11:35:55.242Z,99903.39
2018-04-12T11:40:57.313Z,99904.52
2018-04-12T11:45:58.618Z,99897.25
2018-04-12T11:50:59.969Z,99913.09
2018-04-12T11:56:01.275Z,99914.63
2018-04-12T12:01:02.618Z,99899.36
2018-04-12T12:06:04.691Z,99884.58
2018-04-12T12:11:06.042Z,99852.94
2018-04-12T12:16:07.363Z,99844.55
2018-04-12T12:21:08.681Z,99833.56
2018-04-12T12:26:10.758Z,99846.27
2018-04-12T12:31:12.097Z,99845.95
2018-04-12T12:36:13.420Z,99815.42
2018-04-12T12:41:14.738Z,99798.91
2018-04-12T12:46:16.066Z,99793.91
2018-04-12T12:51:17.391Z,99797.11
2018-04-12T12:56:18.710Z,99794.80
2018-04-12T13:01:20.033Z,99797.77
2018-04-12T13:06:21.431Z,99784.19
2018-04-12T13:11:22.739Z,99789.95
2018-04-12T13:16:24.054Z,99775.05
2018-04-12T13:21:25.361Z,99769.55
2018-04-12T13:26:27.446Z,99757.69
2018-04-12T13:31:28.782Z,99753.97
2018-04-12T13:36:30.109Z,99756.13
2018-04-12T13:41:31.434Z,99766.66
2018-04-12T13:46:32.738Z,99763.92
2018-04-12T13:51:34.831Z,99753.13
2018-04-12T13:56:36.240Z,99744.64
2018-04-12T14:01:37.661Z,99740.88
2018-04-12T14:06:39.109Z,99733.80
2018-04-12T14:11:41.196Z,99737.22
2018-04-12T14:16:43.630Z,99720.73
2018-04-12T14:21:44.944Z,99714.81
2018-04-12T14:26:46.275Z,99728.84
2018-04-12T14:31:47.602Z,99726.72
2018-04-12T14:36:49.674Z,99732.34
2018-04-12T14:41:51.028Z,99730.73
2018-04-12T14:46:52.345Z,99744.27
2018-04-12T14:51:53.707Z,99733.11
2018-04-12T14:56:55.030Z,99741.50
2018-04-12T15:01:56.355Z,99730.44
2018-04-12T15:06:58.028Z,99733.20
2018-04-12T15:11:59.362Z,99741.19
2018-04-12T15:17:00.783Z,99726.09
2018-04-12T15:22:02.289Z,99736.08
2018-04-12T15:27:03.619Z,99734.23
2018-04-12T15:32:05.758Z,99724.72
2018-04-12T15:37:07.776Z,99711.88
2018-04-12T15:42:10.024Z,99706.65
2018-04-12T15:47:11.339Z,99707.88
2018-04-12T15:52:12.747Z,99701.84
2018-04-12T15:57:14.073Z,99689.81
2018-04-12T16:02:15.402Z,99700.71
2018-04-12T16:07:17.462Z,99693.06
2018-04-12T16:12:18.770Z,99701.00
2018-04-12T16:17:20.190Z,99708.12
2018-04-12T16:39:06.640Z,99677.11
2018-04-12T16:44:08.031Z,99686.88
2018-04-12T16:49:09.353Z,99696.66
2018-04-12T16:54:10.667Z,99708.13
2018-04-12T16:59:11.981Z,99710.92
2018-04-12T17:04:14.117Z,99706.95
2018-04-12T17:09:15.448Z,99710.29
2018-04-12T17:14:16.820Z,99719.41
2018-04-12T17:19:19.012Z,99716.33
2018-04-12T17:24:20.413Z,99728.55
2018-04-12T17:29:21.843Z,99722.14
2018-04-12T17:34:23.903Z,99737.31
2018-04-12T17:39:25.249Z,99734.72
2018-04-12T17:44:27.329Z,99742.86
2018-04-12T17:49:28.691Z,99736.50
2018-04-12T17:54:30.078Z,99748.54
2018-04-12T17:59:33.144Z,99745.56
2018-04-12T18:04:34.982Z,99737.10
2018-04-12T18:09:37.085Z,99736.83
2018-04-12T18:14:39.362Z,99747.20
2018-04-12T18:19:40.738Z,99754.05
2018-04-12T18:24:42.126Z,99765.02
2018-04-12T18:29:43.496Z,99770.39
2018-04-12T18:34:44.870Z,99769.45
2018-04-12T18:39:46.952Z,99777.03
2018-04-12T18:44:48.274Z,99789.03
2018-04-12T18:49:49.882Z,99800.02
2018-04-12T18:54:51.310Z,99805.83
2018-04-12T18:59:52.642Z,99794.78
2018-04-12T19:04:54.862Z,99798.17
2018-04-12T19:09:56.154Z,99799.75
2018-04-12T19:14:58.283Z,99802.39
2018-04-12T19:19:59.620Z,99801.58
2018-04-12T19:25:01.031Z,99804.41
2018-04-12T19:30:03.128Z,99797.48
2018-04-12T19:35:04.483Z,99793.61
2018-04-12T19:40:05.806Z,99794.06
2018-04-12T19:45:07.908Z,99792.02
2018-04-12T19:50:10.007Z,99790.27
2018-04-12T19:55:12.243Z,99794.20
2018-04-12T20:00:14.319Z,99787.30
2018-04-12T20:05:15.686Z,99782.42
2018-04-12T20:10:17.006Z,99778.47
2018-04-12T20:15:18.305Z,99772.09
2018-04-12T20:20:20.375Z,99778.15
2018-04-12T20:25:21.710Z,99774.81
2018-04-12T20:30:23.761Z,99768.89
2018-04-12T20:35:25.071Z,99765.93
2018-04-12T20:40:26.428Z,99774.22
2018-04-12T20:45:27.774Z,99779.17
2018-04-12T20:50:29.859Z,99770.61
2018-04-12T20:55:31.190Z,99773.59
2018-04-12T21:00:33.238Z,99778.17
2018-04-12T21:05:34.569Z,99783.35
2018-04-12T21:10:36.643Z,99787.61
2018-04-12T21:15:37.994Z,99791.59
2018-04-12T21:20:39.323Z,99798.28
2018-04-12T21:25:40.638Z,99797.55
2018-04-12T21:30:41.973Z,99800.00
2018-04-12T21:35:43.277Z,99802.08
2018-04-12T21:40:44.598Z,99791.59
2018-04-12T21:45:45.926Z,99787.39
2018-04-12T21:50:47.266Z,99791.30
2018-04-12T21:55:48.605Z,99775.35
2018-04-12T22:00:49.946Z,99777.20
2018-04-12T22:05:51.274Z,99775.97
2018-04-12T22:10:53.338Z,99761.14
2018-04-12T22:15:54.670Z,99776.42
2018-04-12T22:20:55.981Z,99766.31
2018-04-12T22:25:57.320Z,99771.81
2018-04-12T22:30:58.642Z,99776.50
2018-04-12T22:35:59.971Z,99769.94
2018-04-12T22:41:01.291Z,99774.86
2018-04-12T22:46:02.634Z,99787.32
2018-04-12T22:51:03.998Z,99798.80
2018-04-12T22:56:06.056Z,99799.09
2018-04-12T23:01:07.389Z,99795.39
2018-04-12T23:06:08.723Z,99793.36
2018-04-12T23:11:10.048Z,99803.80
2018-04-12T23:16:11.365Z,99806.44
2018-04-12T23:21:12.693Z,99806.47
2018-04-12T23:26:14.006Z,99864.59
2018-04-12T23:31:15.320Z,99892.81
2018-04-12T23:36:17.379Z,99895.23
2018-04-12T23:41:18.699Z,99921.41
2018-04-12T23:46:20.022Z,99924.17
2018-04-12T23:51:21.355Z,99935.32
2018-04-12T23:56:22.674Z,99918.09
